• Join FlightAware (Why Join?)
  • Login
  • US Flag 
10:28PM EST


 

Airport Tracker/Info


-or-


 

Live Flight TrackerFlight Track Log ✈ TAM3764 ✈ 16-Jul-2013 ✈ SBLO / LDB - SBSP / CGH

Flight Track Log - Related Links

Times and Time Zones

All times are in EDT time to prevent confusion due to time zone crossing. See the TAM3764 flight status page for this flight to view local times or setup timezone preferences in your user account.

Time Position Orientation Groundspeed Altitude Reporting Facility
EDT Latitude Longitude Course Direction KTS MPH feet Rate Location/Type
06:56PM -23.3300 -51.1380 19° North 10 12  Level FlightAware
06:59PM -23.3300 -51.1390 270° West 24 28 480 Level FlightAware
07:00PM -23.3300 -51.1400 270° West 20 23 1,320 Level FlightAware
07:00PM -23.3310 -51.1380 119° Southeast 21 24 1,860 Level FlightAware
07:01PM -23.3360 -51.1230 110° East 160 184 3,120 Level FlightAware
07:01PM -23.3400 -51.1080 106° East 157 181 2,600 3,600 Climbing FlightAware
07:02PM -23.3280 -51.0800 65° Northeast 194 223 3,400 1,200 Climbing FlightAware
07:02PM -23.3150 -51.0600 55° Northeast 233 268 3,800 1,500 Climbing FlightAware
07:03PM -23.2940 -51.0230 58° Northeast 277 319 4,800 2,460 Climbing FlightAware
07:03PM -23.2760 -50.9880 61° Northeast 284 327 6,300 3,000 Climbing FlightAware
07:03PM -23.2580 -50.9500 63° Northeast 293 337 7,700 2,880 Climbing FlightAware
07:04PM -23.2390 -50.9130 61° Northeast 299 344 9,100 2,520 Climbing FlightAware
07:05PM -23.2110 -50.8580 61° Northeast 325 374 10,600 1,620 Climbing FlightAware
07:05PM -23.1870 -50.8100 61° Northeast 364 419 11,100 1,800 Climbing FlightAware
07:06PM -23.1570 -50.7500 61° Northeast 372 428 12,700 2,520 Climbing FlightAware
07:06PM -23.1200 -50.6770 61° Northeast 383 441 14,500 2,400 Climbing FlightAware
07:07PM -23.0860 -50.6090 61° Northeast 391 450 16,100 2,400 Climbing FlightAware
07:08PM -23.0580 -50.5530 61° Northeast 395 455 17,400 2,220 Climbing FlightAware
07:08PM -23.0290 -50.4970 61° Northeast 403 464 18,500 1,920 Climbing FlightAware
07:09PM -22.9900 -50.4200 61° Northeast 416 479 19,800 1,740 Climbing FlightAware
07:10PM -22.9490 -50.3400 61° Northeast 430 495 21,000 1,620 Climbing FlightAware
07:10PM -22.9090 -50.2610 61° Northeast 438 504 22,200 1,320 Climbing FlightAware
07:11PM -22.8840 -50.2130 61° Northeast 443 510 22,900 1,920 Climbing FlightAware
07:12PM -22.8290 -50.1050 61° Northeast 438 504 24,900 2,100 Climbing FlightAware
07:12PM -22.7880 -50.0230 62° Northeast 448 516 25,800 1,260 Climbing FlightAware
07:13PM -22.7480 -49.9470 60° Northeast 456 525 26,600 1,320 Climbing FlightAware
07:14PM -22.7050 -49.8630 61° Northeast 461 531 27,600 1,320 Climbing FlightAware
07:14PM -22.6610 -49.7770 61° Northeast 467 537 28,500 1,080 Climbing FlightAware
07:16PM -22.5630 -49.5880 61° Northeast 482 555 30,200 1,140 Climbing FlightAware
07:17PM -22.5200 -49.5030 61° Northeast 481 554 31,100 1,260 Climbing FlightAware
07:17PM -22.4770 -49.4200 61° Northeast 487 560 31,800 1,260 Climbing FlightAware
07:18PM -22.4290 -49.3280 61° Northeast 483 556 32,900 840 Climbing FlightAware
07:19PM -22.3860 -49.2450 61° Northeast 484 557 33,000 60 Climbing FlightAware
07:19PM -22.3350 -49.1490 60° Northeast 481 554 33,000  Level FlightAware
07:20PM -22.3000 -49.0800 61° Northeast 479 551 33,000  Level FlightAware
07:21PM -22.2530 -48.9890 61° Northeast 480 552 33,000  Level FlightAware
07:21PM -22.2040 -48.8940 61° Northeast 479 551 33,000  Level FlightAware
07:22PM -22.1620 -48.8110 61° Northeast 479 551 33,000  Level FlightAware
07:23PM -22.1230 -48.7370 60° Northeast 480 552 33,000  Level FlightAware
07:23PM -22.0840 -48.6610 61° Northeast 479 551 33,000  Level FlightAware
07:24PM -22.0340 -48.5650 61° Northeast 479 551 33,000  Level FlightAware
07:25PM -22.0030 -48.5050 61° Northeast 479 551 33,000  Level FlightAware
07:25PM -21.9630 -48.4270 61° Northeast 478 550 33,000  Level FlightAware
07:26PM -21.9130 -48.3310 61° Northeast 479 551 33,000  Level FlightAware
07:27PM -21.8740 -48.2330 67° East 483 556 33,000  Level FlightAware
07:27PM -21.8920 -48.1280 100° East 474 545 33,000  Level FlightAware
07:28PM -21.9300 -48.0800 130° Southeast 459 528 33,000  Level FlightAware
07:29PM -22.0080 -48.0370 153° Southeast 446 513 33,000  Level FlightAware
07:29PM -22.0860 -47.9960 154° Southeast 445 512 33,000 -960 Level FlightAware
07:31PM -22.2660 -47.8990 153° Southeast 427 491 30,700 -1,440 Descending FlightAware
07:31PM -22.3060 -47.8780 154° Southeast 418 481 30,100 -780 Descending FlightAware
07:32PM -22.3930 -47.8310 153° Southeast 396 456 29,700 -300 Descending FlightAware
07:33PM -22.4340 -47.8080 153° Southeast 396 456 29,700  Level FlightAware
07:34PM -22.4980 -47.7730 153° Southeast 396 456 29,700 -1,740 Level FlightAware
07:34PM -22.5650 -47.7390 155° Southeast 322 371 27,200 -2,700 Descending FlightAware
07:35PM -22.6190 -47.7110 154° Southeast 317 365 26,100 -960 Descending FlightAware
07:36PM -22.6760 -47.6790 153° Southeast 317 365 25,900 -1,200 Descending FlightAware
07:36PM -22.7190 -47.6400 140° Southeast 335 386 24,500 -2,040 Descending FlightAware
07:37PM -22.7630 -47.5990 139° Southeast 332 382 23,400 -1,800 Descending FlightAware
07:38PM -22.8120 -47.5530 139° Southeast 335 386 22,100 -1,680 Descending FlightAware
07:38PM -22.8490 -47.5190 140° Southeast 325 374 21,400 -1,500 Descending FlightAware
07:39PM -22.8990 -47.4730 140° Southeast 326 375 20,200 -1,620 Descending FlightAware
07:40PM -22.9510 -47.4250 140° Southeast 322 371 19,000 -1,560 Descending FlightAware
07:40PM -22.9960 -47.3820 139° Southeast 318 366 18,000 -1,440 Descending FlightAware
07:41PM -23.0460 -47.3360 140° Southeast 313 360 17,000 -1,380 Descending FlightAware
07:42PM -23.0880 -47.2970 139° Southeast 309 356 16,100 -1,500 Descending FlightAware
07:42PM -23.1200 -47.2670 139° Southeast 301 346 15,300 -1,980 Descending FlightAware
07:43PM -23.1560 -47.2330 139° Southeast 299 344 14,000 -2,100 Descending FlightAware
07:43PM -23.1950 -47.1970 140° Southeast 289 333 12,800 -1,980 Descending FlightAware
07:44PM -23.2320 -47.1620 139° Southeast 285 328 11,600 -1,320 Descending FlightAware
07:46PM -23.3150 -47.0850 140° Southeast 260 299 10,100 -1,620 Descending FlightAware
07:46PM -23.3400 -47.0630 141° Southeast 247 284 8,500 -3,240 Descending FlightAware
07:46PM -23.3530 -47.0510 140° Southeast 252 290 8,000 -1,500 Descending FlightAware
07:47PM -23.3790 -47.0280 141° Southeast 242 278 7,400 -1,080 Descending FlightAware
07:47PM -23.4010 -47.0060 137° Southeast 235 270 7,000 -480 Descending FlightAware
07:48PM -23.4240 -46.9840 139° Southeast 218 251 7,000 -180 Level FlightAware
07:48PM -23.4330 -46.9760 141° Southeast 214 246 6,900 -1,200 Descending FlightAware
07:48PM -23.4560 -46.9540 139° Southeast 216 249 6,200 -1,140 Descending FlightAware
07:49PM -23.4780 -46.9330 139° Southeast 212 244 5,800 -720 Descending FlightAware
07:49PM -23.4850 -46.9230 127° Southeast 213 245 5,700 -600 Descending FlightAware
07:49PM -23.4880 -46.9130 108° East 216 249 5,600 -420 Descending FlightAware
07:50PM -23.4860 -46.8760 87° East 212 244 5,400 -300 Descending FlightAware
07:50PM -23.4840 -46.8470 86° East 209 241 5,300 -180 Descending FlightAware
07:50PM -23.4830 -46.8350 85° East 209 241 5,300  Level FlightAware
07:51PM -23.4810 -46.8040 86° East 210 242 5,300  Level FlightAware
07:51PM -23.4800 -46.7840 87° East 210 242 5,300 -240 Level FlightAware
07:52PM -23.4970 -46.7460 116° Southeast 202 232 5,100 -600 Descending FlightAware
07:52PM -23.5200 -46.7300 147° Southeast 179 206 4,600 -1,080 Descending FlightAware
07:53PM -23.5280 -46.7250 150° Southeast 168 193 4,400 -900 Descending FlightAware
07:53PM -23.5460 -46.7120 146° Southeast 158 182 4,000 -900 Descending FlightAware
07:54PM -23.5630 -46.7010 149° Southeast 155 178 3,600 -780 Descending FlightAware
07:54PM -23.5800 -46.6890 147° Southeast 153 176 3,300 -780 Descending FlightAware
07:55PM -23.5970 -46.6770 147° Southeast 145 167 2,900 -780 Descending FlightAware
07:55PM -23.6120 -46.6670 149° Southeast 139 160 2,600 -360 Descending FlightAware
07:55PM -23.6240 -46.6580 146° Southeast 139 160 2,600  Level FlightAware
07:58PM -23.6267 -46.6554 138° Southeast  Level Estimated